Station Historical Data
Daily Summary for October 17, 2017 Units:  English    Metric   Both
« Previous Day
Next Day »
Daily Weekly Monthly Yearly Custom
  High: Low: Average:
Temperature: 62.2 °F 33.4 °F 49.4 °F
Dew Point: 49.2 °F 30.2 °F 39.5 °F
Humidity: 89% 54% 70%
Wind Speed: 19.0mph 0.0mph 4.3mph
Wind Gust: 28.0mph - -
Wind- - SW
Pressure: 30.30 in 30.12 in -
Precipitation: 0.00 in    
Historical Graphs
 
 
Tabular Data for October 17, 2017
Time Temperature Dew Point Pressure Wind Wind Speed Wind Gust Humidity Rainfall Rate (Hourly)
00:04 36.5 °F 32.7 °F 30.29 in Calm     86% 0.00 in
00:09 36.4 °F 32.6 °F 30.29 in Calm     86% 0.00 in
00:14 36.3 °F 32.5 °F 30.29 in Calm     86% 0.00 in
00:19 36.2 °F 32.4 °F 30.28 in Calm     86% 0.00 in
00:24 36.1 °F 32.3 °F 30.28 in Calm     86% 0.00 in
00:29 36.0 °F 32.2 °F 30.28 in Calm     86% 0.00 in
00:34 35.8 °F 32.3 °F 30.28 in Calm     87% 0.00 in
00:39 35.7 °F 32.2 °F 30.28 in Calm     87% 0.00 in
00:44 35.7 °F 32.2 °F 30.28 in Calm     87% 0.00 in
00:49 35.5 °F 32.0 °F 30.28 in Calm     87% 0.00 in
00:54 35.5 °F 32.0 °F 30.28 in Calm     87% 0.00 in
00:59 35.4 °F 31.9 °F 30.28 in Calm     87% 0.00 in
01:04 35.3 °F 31.8 °F 30.28 in Calm     87% 0.00 in
01:09 35.2 °F 31.7 °F 30.28 in Calm     87% 0.00 in
01:14 35.1 °F 31.6 °F 30.28 in Calm     87% 0.00 in
01:19 34.8 °F 31.3 °F 30.29 in Calm     87% 0.00 in
01:24 34.7 °F 31.2 °F 30.29 in Calm     87% 0.00 in
01:29 34.7 °F 31.5 °F 30.29 in Calm     88% 0.00 in
01:34 34.7 °F 31.5 °F 30.28 in Calm     88% 0.00 in
01:39 34.6 °F 31.4 °F 30.28 in Calm     88% 0.00 in
01:44 34.6 °F 31.4 °F 30.29 in Calm     88% 0.00 in
01:49 34.6 °F 31.4 °F 30.29 in Calm     88% 0.00 in
01:54 34.6 °F 31.4 °F 30.29 in Calm     88% 0.00 in
01:59 34.6 °F 31.4 °F 30.29 in Calm     88% 0.00 in
02:04 34.4 °F 31.2 °F 30.29 in Calm     88% 0.00 in
02:09 34.1 °F 30.9 °F 30.29 in Calm     88% 0.00 in
02:14 33.9 °F 30.7 °F 30.29 in Calm     88% 0.00 in
02:19 33.9 °F 30.7 °F 30.29 in Calm     88% 0.00 in
02:24 33.7 °F 30.5 °F 30.29 in Calm     88% 0.00 in
02:29 33.4 °F 30.2 °F 30.29 in Calm     88% 0.00 in
02:34 33.5 °F 30.3 °F 30.29 in Calm     88% 0.00 in
02:39 33.7 °F 30.8 °F 30.29 in Calm     89% 0.00 in
02:44 33.8 °F 30.9 °F 30.29 in Calm     89% 0.00 in
02:49 33.9 °F 31.0 °F 30.30 in Calm     89% 0.00 in
02:54 33.8 °F 30.9 °F 30.30 in Calm     89% 0.00 in
02:59 33.8 °F 30.9 °F 30.30 in Calm     89% 0.00 in
03:04 33.9 °F 31.0 °F 30.30 in Calm     89% 0.00 in
03:09 33.9 °F 31.0 °F 30.30 in Calm     89% 0.00 in
03:14 33.9 °F 31.0 °F 30.30 in Calm     89% 0.00 in
03:19 33.8 °F 30.9 °F 30.30 in Calm     89% 0.00 in
03:24 33.9 °F 31.0 °F 30.30 in Calm     89% 0.00 in
03:29 33.9 °F 31.0 °F 30.29 in Calm     89% 0.00 in
03:34 33.9 °F 31.0 °F 30.29 in Calm     89% 0.00 in
03:39 33.9 °F 31.0 °F 30.29 in Calm     89% 0.00 in
03:44 33.9 °F 31.0 °F 30.29 in Calm     89% 0.00 in
03:49 33.9 °F 31.0 °F 30.29 in Calm     89% 0.00 in
03:54 33.8 °F 30.9 °F 30.29 in Calm     89% 0.00 in
03:59 33.9 °F 31.0 °F 30.29 in Calm     89% 0.00 in
04:04 33.9 °F 31.0 °F 30.29 in Calm     89% 0.00 in
04:09 33.9 °F 30.7 °F 30.28 in Calm     88% 0.00 in
04:14 33.9 °F 30.7 °F 30.29 in Calm     88% 0.00 in
04:19 33.8 °F 30.6 °F 30.29 in Calm     88% 0.00 in
04:24 33.8 °F 30.6 °F 30.29 in Calm     88% 0.00 in
04:29 33.8 °F 30.6 °F 30.29 in Calm     88% 0.00 in
04:34 33.8 °F 30.6 °F 30.29 in Calm     88% 0.00 in
04:39 33.8 °F 30.6 °F 30.29 in Calm     88% 0.00 in
04:44 33.9 °F 30.7 °F 30.29 in Calm     88% 0.00 in
04:49 33.9 °F 30.7 °F 30.29 in Calm     88% 0.00 in
04:54 34.0 °F 30.8 °F 30.29 in Calm     88% 0.00 in
04:59 33.9 °F 30.7 °F 30.29 in Calm     88% 0.00 in
05:04 33.8 °F 30.6 °F 30.29 in Calm     88% 0.00 in
05:09 33.8 °F 30.6 °F 30.29 in Calm     88% 0.00 in
05:14 33.8 °F 30.6 °F 30.29 in Calm     88% 0.00 in
05:19 33.9 °F 30.7 °F 30.29 in Calm     88% 0.00 in
05:24 34.0 °F 30.8 °F 30.29 in Calm     88% 0.00 in
05:29 33.9 °F 30.7 °F 30.29 in Calm     88% 0.00 in
05:34 34.1 °F 30.9 °F 30.29 in Calm     88% 0.00 in
05:39 34.3 °F 31.1 °F 30.29 in Calm     88% 0.00 in
05:44 34.4 °F 31.2 °F 30.29 in Calm     88% 0.00 in
05:49 34.4 °F 31.2 °F 30.29 in Calm     88% 0.00 in
05:54 34.5 °F 31.3 °F 30.29 in Calm     88% 0.00 in
05:59 34.5 °F 31.3 °F 30.29 in Calm     88% 0.00 in
06:04 34.4 °F 31.2 °F 30.29 in Calm     88% 0.00 in
06:09 34.6 °F 31.4 °F 30.29 in Calm     88% 0.00 in
06:14 34.6 °F 31.1 °F 30.29 in Calm     87% 0.00 in
06:19 34.8 °F 31.6 °F 30.29 in Calm     88% 0.00 in
06:24 34.8 °F 31.3 °F 30.29 in Calm     87% 0.00 in
06:29 34.9 °F 31.4 °F 30.29 in Calm     87% 0.00 in
06:34 35.1 °F 31.6 °F 30.29 in Calm     87% 0.00 in
06:39 35.3 °F 31.8 °F 30.29 in Calm     87% 0.00 in
06:44 35.3 °F 31.5 °F 30.29 in Calm     86% 0.00 in
06:49 35.5 °F 31.7 °F 30.29 in Calm     86% 0.00 in
06:54 35.5 °F 31.7 °F 30.29 in Calm     86% 0.00 in
06:59 35.6 °F 31.8 °F 30.29 in Calm     86% 0.00 in
07:04 35.8 °F 32.0 °F 30.29 in Calm     86% 0.00 in
07:09 35.9 °F 32.1 °F 30.29 in Calm     86% 0.00 in
07:14 35.9 °F 31.8 °F 30.29 in Calm     85% 0.00 in
07:19 35.9 °F 31.8 °F 30.29 in Calm     85% 0.00 in
07:24 36.0 °F 31.9 °F 30.29 in Calm     85% 0.00 in
07:29 36.2 °F 32.1 °F 30.28 in Calm     85% 0.00 in
07:34 36.5 °F 32.4 °F 30.28 in Calm   2.0 mph 85% 0.00 in
07:39 36.9 °F 32.5 °F 30.28 in Calm   2.0 mph 84% 0.00 in
07:44 37.5 °F 33.1 °F 30.28 in South 2.0 mph 4.0 mph 84% 0.00 in
07:49 37.9 °F 33.2 °F 30.28 in Calm   2.0 mph 83% 0.00 in
07:54 38.3 °F 33.3 °F 30.28 in South 1.0 mph 4.0 mph 82% 0.00 in
07:59 38.5 °F 33.2 °F 30.28 in South 1.0 mph 4.0 mph 81% 0.00 in
08:04 38.6 °F 33.3 °F 30.28 in Calm   2.0 mph 81% 0.00 in
08:09 39.0 °F 33.7 °F 30.28 in SSW 2.0 mph 5.0 mph 81% 0.00 in
08:14 39.7 °F 34.0 °F 30.28 in Calm   6.0 mph 80% 0.00 in
08:19 40.3 °F 34.3 °F 30.29 in South 2.0 mph 5.0 mph 79% 0.00 in
08:24 40.8 °F 34.5 °F 30.29 in South 1.0 mph 5.0 mph 78% 0.00 in
08:29 41.4 °F 34.7 °F 30.29 in South 1.0 mph 5.0 mph 77% 0.00 in
08:34 42.3 °F 35.3 °F 30.29 in SSW 1.0 mph 5.0 mph 76% 0.01 in
08:39 42.9 °F 35.9 °F 30.29 in SSW 2.0 mph 5.0 mph 76% 0.01 in
08:44 43.0 °F 35.6 °F 30.28 in South 2.0 mph 5.0 mph 75% 0.01 in
08:49 43.2 °F 35.8 °F 30.29 in South 2.0 mph 5.0 mph 75% 0.01 in
08:54 43.7 °F 36.3 °F 30.28 in SSW 2.0 mph 5.0 mph 75% 0.01 in
08:59 44.4 °F 37.0 °F 30.29 in SW 5.0 mph 5.0 mph 75% 0.01 in
09:04 45.2 °F 37.1 °F 30.29 in SSW 2.0 mph 7.0 mph 73% 0.01 in
09:09 45.4 °F 36.5 °F 30.28 in SSW 3.0 mph 8.0 mph 71% 0.01 in
09:14 45.6 °F 36.7 °F 30.28 in SW 2.0 mph 7.0 mph 71% 0.01 in
09:19 46.0 °F 37.1 °F 30.28 in SW 2.0 mph 7.0 mph 71% 0.01 in
09:24 46.4 °F 37.1 °F 30.28 in SSW 2.0 mph 7.0 mph 70% 0.01 in
09:29 47.0 °F 37.4 °F 30.28 in SSW 5.0 mph 10.0 mph 69% 0.01 in
09:34 47.3 °F 37.6 °F 30.28 in SSW 4.0 mph 10.0 mph 69% 0.00 in
09:39 48.5 °F 38.8 °F 30.27 in SSW 3.0 mph 6.0 mph 69% 0.00 in
09:44 49.8 °F 39.3 °F 30.27 in SSW 2.0 mph 8.0 mph 67% 0.00 in
09:49 50.7 °F 39.7 °F 30.27 in SW 4.0 mph 9.0 mph 66% 0.00 in
09:54 51.3 °F 39.9 °F 30.27 in SW 4.0 mph 11.0 mph 65% 0.00 in
09:59 51.8 °F 39.6 °F 30.27 in SSW 6.0 mph 14.0 mph 63% 0.00 in
10:04 52.0 °F 39.8 °F 30.27 in SW 5.0 mph 14.0 mph 63% 0.00 in
10:09 51.9 °F 40.1 °F 30.27 in SW 5.0 mph 19.0 mph 64% 0.00 in
10:14 52.1 °F 39.9 °F 30.27 in SW 6.0 mph 19.0 mph 63% 0.00 in
10:19 51.9 °F 39.7 °F 30.26 in SW 5.0 mph 13.0 mph 63% 0.00 in
10:24 52.2 °F 40.0 °F 30.26 in West 3.0 mph 11.0 mph 63% 0.00 in
10:29 52.9 °F 39.8 °F 30.26 in SW 5.0 mph 11.0 mph 61% 0.00 in
10:34 52.6 °F 39.9 °F 30.26 in SW 6.0 mph 11.0 mph 62% 0.00 in
10:39 53.4 °F 40.7 °F 30.26 in SW 4.0 mph 12.0 mph 62% 0.00 in
10:44 54.0 °F 40.4 °F 30.26 in SW 6.0 mph 14.0 mph 60% 0.00 in
10:49 54.4 °F 41.2 °F 30.26 in WSW 5.0 mph 15.0 mph 61% 0.00 in
10:54 54.3 °F 41.1 °F 30.26 in SSW 3.0 mph 11.0 mph 61% 0.00 in
10:59 55.2 °F 41.5 °F 30.26 in SW 3.0 mph 13.0 mph 60% 0.00 in
11:04 56.2 °F 43.3 °F 30.26 in SW 5.0 mph 13.0 mph 62% 0.00 in
11:09 56.3 °F 42.1 °F 30.26 in SW 5.0 mph 11.0 mph 59% 0.00 in
11:14 55.6 °F 41.5 °F 30.26 in SSW 5.0 mph 11.0 mph 59% 0.00 in
11:19 55.1 °F 41.9 °F 30.25 in SW 5.0 mph 12.0 mph 61% 0.00 in
11:24 55.0 °F 40.9 °F 30.25 in SSW 6.0 mph 15.0 mph 59% 0.00 in
11:29 54.9 °F 40.8 °F 30.25 in SSW 9.0 mph 15.0 mph 59% 0.00 in
11:34 55.2 °F 41.1 °F 30.25 in SW 7.0 mph 15.0 mph 59% 0.00 in
11:39 56.3 °F 41.7 °F 30.25 in SSW 4.0 mph 15.0 mph 58% 0.00 in
11:44 56.5 °F 41.9 °F 30.25 in SSW 7.0 mph 18.0 mph 58% 0.00 in
11:49 57.2 °F 42.5 °F 30.24 in SSW 2.0 mph 16.0 mph 58% 0.00 in
11:54 57.9 °F 42.8 °F 30.24 in SW 8.0 mph 10.0 mph 57% 0.00 in
11:59 58.1 °F 42.9 °F 30.24 in SSW 7.0 mph 14.0 mph 57% 0.00 in
12:04 58.2 °F 43.0 °F 30.24 in SW 7.0 mph 14.0 mph 57% 0.00 in
12:09 58.9 °F 43.7 °F 30.24 in SW 7.0 mph 18.0 mph 57% 0.00 in
12:14 59.4 °F 43.7 °F 30.24 in SW 7.0 mph 18.0 mph 56% 0.00 in
12:19 59.2 °F 43.0 °F 30.24 in SW 8.0 mph 19.0 mph 55% 0.00 in
12:24 59.5 °F 43.3 °F 30.23 in WSW 10.0 mph 22.0 mph 55% 0.00 in
12:29 59.8 °F 44.1 °F 30.23 in SW 10.0 mph 22.0 mph 56% 0.00 in
12:34 60.3 °F 44.5 °F 30.23 in SW 9.0 mph 22.0 mph 56% 0.00 in
12:39 60.6 °F 44.3 °F 30.22 in West 7.0 mph 17.0 mph 55% 0.00 in
12:44 61.0 °F 44.2 °F 30.22 in SW 14.0 mph 18.0 mph 54% 0.00 in
12:49 60.2 °F 44.9 °F 30.22 in WSW 14.0 mph 19.0 mph 57% 0.00 in
12:54 60.3 °F 45.0 °F 30.22 in SW 11.0 mph 21.0 mph 57% 0.00 in
12:59 60.5 °F 45.2 °F 30.22 in WSW 11.0 mph 21.0 mph 57% 0.00 in
13:04 61.0 °F 45.2 °F 30.22 in WSW 10.0 mph 21.0 mph 56% 0.00 in
13:09 60.4 °F 44.2 °F 30.21 in West 13.0 mph 22.0 mph 55% 0.00 in
13:14 60.7 °F 45.4 °F 30.21 in WSW 12.0 mph 22.0 mph 57% 0.00 in
13:19 61.3 °F 45.5 °F 30.21 in WSW 9.0 mph 19.0 mph 56% 0.00 in
13:24 61.3 °F 45.5 °F 30.20 in SSW 9.0 mph 21.0 mph 56% 0.00 in
13:29 61.3 °F 45.5 °F 30.20 in SW 8.0 mph 19.0 mph 56% 0.00 in
13:34 61.6 °F 45.7 °F 30.20 in SW 6.0 mph 16.0 mph 56% 0.00 in
13:39 61.1 °F 45.3 °F 30.20 in WSW 8.0 mph 21.0 mph 56% 0.00 in
13:44 60.9 °F 45.1 °F 30.20 in SW 11.0 mph 24.0 mph 56% 0.00 in
13:49 61.6 °F 45.7 °F 30.20 in SSW 13.0 mph 18.0 mph 56% 0.00 in
13:54 60.9 °F 45.1 °F 30.19 in West 8.0 mph 25.0 mph 56% 0.00 in
13:59 60.7 °F 45.4 °F 30.19 in WSW 12.0 mph 25.0 mph 57% 0.00 in
14:04 61.4 °F 45.6 °F 30.19 in WSW 10.0 mph 23.0 mph 56% 0.00 in
14:09 61.3 °F 45.5 °F 30.19 in WSW 10.0 mph 23.0 mph 56% 0.00 in
14:14 60.9 °F 46.0 °F 30.18 in WSW 10.0 mph 25.0 mph 58% 0.00 in
14:19 61.2 °F 45.4 °F 30.18 in SW 17.0 mph 22.0 mph 56% 0.00 in
14:24 61.4 °F 47.4 °F 30.17 in WSW 17.0 mph 22.0 mph 60% 0.00 in
14:29 61.5 °F 46.6 °F 30.17 in SSW 8.0 mph 22.0 mph 58% 0.00 in
14:34 62.1 °F 47.6 °F 30.17 in WSW 8.0 mph 14.0 mph 59% 0.00 in
14:39 62.2 °F 46.8 °F 30.17 in SW 13.0 mph 19.0 mph 57% 0.00 in
14:44 61.6 °F 46.7 °F 30.17 in WSW 13.0 mph 26.0 mph 58% 0.00 in
14:49 61.0 °F 46.6 °F 30.17 in NNW 5.0 mph 19.0 mph 59% 0.00 in
14:54 60.8 °F 45.9 °F 30.17 in West 19.0 mph 26.0 mph 58% 0.00 in
14:59 60.5 °F 45.6 °F 30.17 in WSW 11.0 mph 26.0 mph 58% 0.00 in
15:04 60.7 °F 45.8 °F 30.17 in WSW 11.0 mph 23.0 mph 58% 0.00 in
15:09 60.6 °F 45.7 °F 30.17 in SSW 8.0 mph 21.0 mph 58% 0.00 in
15:14 60.4 °F 46.4 °F 30.17 in WSW 18.0 mph 18.0 mph 60% 0.00 in
15:19 60.2 °F 45.8 °F 30.17 in West 7.0 mph 20.0 mph 59% 0.00 in
15:24 60.5 °F 46.1 °F 30.17 in WSW 10.0 mph 20.0 mph 59% 0.00 in
15:29 60.3 °F 46.4 °F 30.17 in WSW 11.0 mph 24.0 mph 60% 0.00 in
15:34 60.4 °F 46.4 °F 30.17 in WSW 9.0 mph 22.0 mph 60% 0.00 in
15:39 61.3 °F 46.8 °F 30.17 in WSW 7.0 mph 17.0 mph 59% 0.00 in
15:44 61.4 °F 46.5 °F 30.16 in SSW 19.0 mph 21.0 mph 58% 0.00 in
15:49 61.5 °F 47.0 °F 30.17 in WSW 11.0 mph 20.0 mph 59% 0.00 in
15:54 61.6 °F 47.1 °F 30.17 in WSW 10.0 mph 21.0 mph 59% 0.00 in
15:59 61.9 °F 47.4 °F 30.16 in SW 14.0 mph 28.0 mph 59% 0.00 in
16:04 61.4 °F 47.8 °F 30.16 in WSW 11.0 mph 28.0 mph 61% 0.00 in
16:09 61.9 °F 48.3 °F 30.16 in SW 8.0 mph 17.0 mph 61% 0.00 in
16:14 61.9 °F 47.0 °F 30.16 in WSW 12.0 mph 27.0 mph 58% 0.00 in
16:19 61.6 °F 46.7 °F 30.16 in WSW 12.0 mph 27.0 mph 58% 0.00 in
16:24 61.8 °F 46.9 °F 30.16 in SW 11.0 mph 27.0 mph 58% 0.00 in
16:29 61.8 °F 46.9 °F 30.15 in WSW 10.0 mph 22.0 mph 58% 0.00 in
16:34 61.9 °F 47.0 °F 30.15 in West 6.0 mph 14.0 mph 58% 0.00 in
16:39 61.8 °F 46.4 °F 30.14 in SSW 7.0 mph 17.0 mph 57% 0.00 in
16:44 61.6 °F 45.7 °F 30.14 in WSW 14.0 mph 20.0 mph 56% 0.00 in
16:49 61.7 °F 45.8 °F 30.14 in WSW 10.0 mph 20.0 mph 56% 0.00 in
16:54 61.6 °F 45.3 °F 30.14 in WSW 10.0 mph 20.0 mph 55% 0.00 in
16:59 61.4 °F 45.1 °F 30.14 in WSW 11.0 mph 22.0 mph 55% 0.00 in
17:04 61.4 °F 45.1 °F 30.14 in West 7.0 mph 25.0 mph 55% 0.00 in
17:09 61.4 °F 45.1 °F 30.14 in South 9.0 mph 22.0 mph 55% 0.00 in
17:14 61.3 °F 45.0 °F 30.14 in WSW 11.0 mph 22.0 mph 55% 0.00 in
17:19 61.4 °F 45.1 °F 30.14 in WSW 8.0 mph 20.0 mph 55% 0.00 in
17:24 61.3 °F 45.5 °F 30.13 in WSW 9.0 mph 22.0 mph 56% 0.00 in
17:29 61.1 °F 44.8 °F 30.13 in WNW 8.0 mph 22.0 mph 55% 0.00 in
17:34 61.1 °F 45.3 °F 30.13 in WSW 7.0 mph 23.0 mph 56% 0.00 in
17:39 61.0 °F 45.2 °F 30.13 in WSW 9.0 mph 23.0 mph 56% 0.00 in
17:44 60.9 °F 45.6 °F 30.13 in SW 11.0 mph 23.0 mph 57% 0.00 in
17:49 60.8 °F 45.9 °F 30.12 in SW 9.0 mph 19.0 mph 58% 0.00 in
17:54 60.7 °F 45.8 °F 30.12 in SSE 4.0 mph 15.0 mph 58% 0.00 in
17:59 60.7 °F 45.4 °F 30.12 in SSW 13.0 mph 23.0 mph 57% 0.00 in
18:04 60.7 °F 45.8 °F 30.12 in WSW 7.0 mph 15.0 mph 58% 0.00 in
18:09 60.4 °F 45.5 °F 30.12 in SW 5.0 mph 15.0 mph 58% 0.00 in
18:14 60.4 °F 46.0 °F 30.12 in SW 8.0 mph 15.0 mph 59% 0.00 in
18:19 60.3 °F 46.4 °F 30.12 in SW 8.0 mph 17.0 mph 60% 0.00 in
18:24 60.2 °F 46.3 °F 30.12 in SW 8.0 mph 20.0 mph 60% 0.00 in
18:29 60.0 °F 46.5 °F 30.13 in West 6.0 mph 11.0 mph 61% 0.00 in
18:34 60.0 °F 46.5 °F 30.13 in SW 10.0 mph 17.0 mph 61% 0.00 in
18:39 60.1 °F 46.6 °F 30.13 in West 12.0 mph 19.0 mph 61% 0.00 in
18:44 60.1 °F 46.6 °F 30.13 in WSW 3.0 mph 15.0 mph 61% 0.00 in
18:49 60.0 °F 46.9 °F 30.13 in SW 8.0 mph 15.0 mph 62% 0.00 in
18:54 60.0 °F 46.9 °F 30.14 in SSW 7.0 mph 12.0 mph 62% 0.00 in
18:59 60.0 °F 47.4 °F 30.14 in WSW 8.0 mph 14.0 mph 63% 0.00 in
19:04 60.1 °F 47.5 °F 30.14 in SW 4.0 mph 10.0 mph 63% 0.00 in
19:09 60.1 °F 47.5 °F 30.14 in SSW 8.0 mph 15.0 mph 63% 0.00 in
19:14 60.2 °F 47.6 °F 30.15 in WSW 7.0 mph 15.0 mph 63% 0.00 in
19:19 60.1 °F 47.5 °F 30.15 in WSW 6.0 mph 13.0 mph 63% 0.00 in
19:24 60.1 °F 47.5 °F 30.14 in WSW 5.0 mph 12.0 mph 63% 0.00 in
19:29 60.3 °F 48.1 °F 30.15 in SW 4.0 mph 12.0 mph 64% 0.00 in
19:34 60.3 °F 48.1 °F 30.15 in WSW 3.0 mph 11.0 mph 64% 0.00 in
19:39 60.4 °F 48.2 °F 30.15 in SSW 5.0 mph 12.0 mph 64% 0.00 in
19:44 60.3 °F 48.1 °F 30.15 in West 4.0 mph 11.0 mph 64% 0.00 in
19:49 60.5 °F 47.8 °F 30.15 in WSW 7.0 mph 16.0 mph 63% 0.00 in
19:54 60.6 °F 47.5 °F 30.15 in WSW 7.0 mph 16.0 mph 62% 0.00 in
19:59 60.6 °F 47.9 °F 30.15 in WSW 6.0 mph 14.0 mph 63% 0.00 in
20:04 60.4 °F 48.2 °F 30.15 in SSW 5.0 mph 15.0 mph 64% 0.00 in
20:09 60.0 °F 49.0 °F 30.15 in SW 4.0 mph 15.0 mph 67% 0.00 in
20:14 59.4 °F 49.2 °F 30.15 in SW 3.0 mph 5.0 mph 69% 0.00 in
20:19 58.9 °F 48.4 °F 30.15 in SW 3.0 mph 9.0 mph 68% 0.00 in
20:24 58.9 °F 47.2 °F 30.15 in SW 1.0 mph 11.0 mph 65% 0.00 in
20:29 58.6 °F 46.5 °F 30.15 in South 3.0 mph 9.0 mph 64% 0.00 in
20:34 58.2 °F 46.1 °F 30.15 in SW 3.0 mph 6.0 mph 64% 0.00 in
20:39 57.9 °F 45.4 °F 30.16 in SSW 4.0 mph 7.0 mph 63% 0.00 in
20:44 57.5 °F 45.0 °F 30.16 in South 3.0 mph 8.0 mph 63% 0.00 in
20:49 57.4 °F 44.9 °F 30.16 in SW 2.0 mph 8.0 mph 63% 0.00 in
20:54 57.5 °F 44.6 °F 30.16 in SSW 4.0 mph 10.0 mph 62% 0.00 in
20:59 57.5 °F 44.6 °F 30.16 in SSW 4.0 mph 10.0 mph 62% 0.00 in
21:04 57.0 °F 43.7 °F 30.16 in SSW 3.0 mph 9.0 mph 61% 0.00 in
21:09 56.9 °F 43.6 °F 30.17 in SSW 3.0 mph 7.0 mph 61% 0.00 in
21:14 56.7 °F 43.8 °F 30.17 in SSW 3.0 mph 8.0 mph 62% 0.00 in
21:19 56.3 °F 43.4 °F 30.17 in SSW 3.0 mph 8.0 mph 62% 0.00 in
21:24 56.2 °F 43.8 °F 30.17 in SSW 2.0 mph 8.0 mph 63% 0.00 in
21:29 56.4 °F 43.5 °F 30.17 in SW 3.0 mph 8.0 mph 62% 0.00 in
21:34 56.5 °F 43.6 °F 30.17 in South 5.0 mph 8.0 mph 62% 0.00 in
21:39 56.7 °F 43.8 °F 30.18 in SSW 3.0 mph 10.0 mph 62% 0.00 in
21:44 55.7 °F 42.9 °F 30.18 in SSW 2.0 mph 4.0 mph 62% 0.00 in
21:49 54.9 °F 42.5 °F 30.18 in Calm   4.0 mph 63% 0.00 in
21:54 54.6 °F 42.7 °F 30.18 in South 2.0 mph 6.0 mph 64% 0.00 in
21:59 54.6 °F 42.3 °F 30.18 in SSW 2.0 mph 7.0 mph 63% 0.00 in
22:04 54.6 °F 42.3 °F 30.18 in SSW 2.0 mph 7.0 mph 63% 0.00 in
22:09 54.6 °F 42.3 °F 30.18 in SSW 2.0 mph 7.0 mph 63% 0.00 in
22:14 54.7 °F 42.3 °F 30.18 in SSW 3.0 mph 7.0 mph 63% 0.00 in
22:19 54.6 °F 42.3 °F 30.18 in SSW 3.0 mph 7.0 mph 63% 0.00 in
22:24 54.5 °F 42.2 °F 30.19 in SSW 5.0 mph 8.0 mph 63% 0.00 in
22:29 54.5 °F 42.2 °F 30.18 in SW 3.0 mph 6.0 mph 63% 0.00 in
22:34 54.4 °F 42.1 °F 30.18 in SSW 3.0 mph 8.0 mph 63% 0.00 in
22:39 54.4 °F 42.1 °F 30.18 in SW 3.0 mph 8.0 mph 63% 0.00 in
22:44 54.4 °F 42.1 °F 30.18 in SSW 5.0 mph 8.0 mph 63% 0.00 in
22:49 54.4 °F 42.1 °F 30.18 in SW 4.0 mph 8.0 mph 63% 0.00 in
22:54 54.7 °F 42.3 °F 30.19 in SSW 4.0 mph 9.0 mph 63% 0.00 in
22:59 54.6 °F 42.3 °F 30.19 in SSW 4.0 mph 9.0 mph 63% 0.00 in
23:04 54.5 °F 42.2 °F 30.19 in SSW 4.0 mph 8.0 mph 63% 0.00 in
23:09 54.6 °F 42.3 °F 30.19 in SSW 4.0 mph 8.0 mph 63% 0.00 in
23:24 55.1 °F 42.3 °F 30.19 in SSW 2.0 mph 8.0 mph 62% 0.00 in
23:29 55.0 °F 42.6 °F 30.19 in SSW 2.0 mph 6.0 mph 63% 0.00 in
23:34 54.9 °F 42.5 °F 30.19 in SSW 3.0 mph 7.0 mph 63% 0.00 in
23:39 54.8 °F 42.4 °F 30.19 in SSW 3.0 mph 9.0 mph 63% 0.00 in
23:44 54.8 °F 42.4 °F 30.19 in SW 4.0 mph 11.0 mph 63% 0.00 in
23:49 54.9 °F 42.5 °F 30.19 in SSW 4.0 mph 11.0 mph 63% 0.00 in
23:54 55.0 °F 42.6 °F 30.19 in SSW 6.0 mph 10.0 mph 63% 0.00 in
23:59 55.1 °F 42.7 °F 30.19 in SSW 4.0 mph 10.0 mph 63% 0.00 in
Buffalo, New York, USA
Compliments of Weather Underground - 2.5 mb